Terminal Aerodrome Forecast
Issued by NWS Central Illinois

Home | Current Version | Previous Version | Text Only | Print | Product List | Glossary On
Versions: 1 2 3 4 5 6 7 8 9 10 11 12 13 14 15 16 17 18
000
FTUS43 KILX 241100
TAFPIA
TAF
KPIA 241136Z 2412/2512 12010KT P6SM SCT120 BKN250
     FM241400 15016G25KT P6SM SCT080 OVC250
     FM241900 17018G28KT P6SM VCSH OVC050
     FM242200 17013G23KT 4SM -RA VCTS OVC035CB
     FM250200 14010KT 6SM -RA BR SCT007 OVC015
     FM250600 33012KT P6SM VCSH OVC012=

USA.gov is the U.S. government's official web portal to all federal, state and local government web resources and services.